Becker, Minnesota
Current Conditions -  °F | °C
As of 10:54 PM on Monday 20 Oct 2014 (Local Time) from KMGG Reporting Station
Clear Clear  
Wind Chill: 39°   Ceiling: Unl
Heat Index: 42°   Visibility: 10mi
Dew Point: 39°   Wind: 6mph
Humidity: 87%   Direction: 60°ENE
Pressure: 30.09"   Gusts: NA
Location:  45.39°N, 93.88°W
Report Text: KMGG 210354Z AUTO 06005KT 10SM CLR 06/04 A3009 RMK AO2 T00580038
Loading
Personal Weather Stations






























Interactive Weather Map
Tropical Storm Tracking
New forecast layout! Learn more

10-Day Weather Forecast

Advertisements
Track Severe Weather on mobile